Time;durP1;ratioP1;P1;durP2;ratioP2;P2;SDS_P1;SDS_P2;PMS_P1;PMS_P2;Temp;Humidity;BMP_temperature;BMP_pressure;BME280_temperature;BME280_humidity;BME280_pressure;Samples;Min_cycle;Max_cycle;Signal;HPM_P1;HPM_P2
2022/11/25 00:00:52;;;;;;;14.75;3.40;;;8.50;99.90;;;;;;5092382;28;20076;-55
2022/11/25 00:03:18;;;;;;;16.65;3.22;;;8.50;99.90;;;;;;5095430;28;20025;-56
2022/11/25 00:05:44;;;;;;;18.45;4.00;;;8.50;99.90;;;;;;5096854;28;20036;-56
2022/11/25 00:08:09;;;;;;;24.88;4.05;;;8.40;99.90;;;;;;5092822;28;20020;-57
2022/11/25 00:10:35;;;;;;;12.57;2.55;;;8.50;99.90;;;;;;5072607;28;20028;-56
2022/11/25 00:13:01;;;;;;;16.58;2.72;;;8.50;99.90;;;;;;5092296;28;20028;-56
2022/11/25 00:15:26;;;;;;;15.23;3.03;;;8.50;99.90;;;;;;5090735;28;20059;-57
2022/11/25 00:17:52;;;;;;;18.70;2.70;;;8.50;99.90;;;;;;5090659;28;20036;-57
2022/11/25 00:20:21;;;;;;;17.38;3.40;;;8.50;99.90;;;;;;5090458;28;20030;-56
2022/11/25 00:22:47;;;;;;;16.25;3.17;;;8.50;99.90;;;;;;5094336;28;20358;-57
2022/11/25 00:25:12;;;;;;;9.18;2.40;;;8.50;99.90;;;;;;5094749;28;20065;-56
2022/11/25 00:27:38;;;;;;;11.73;2.53;;;8.50;99.90;;;;;;5090170;28;20951;-57
2022/11/25 00:30:04;;;;;;;15.07;2.45;;;8.50;99.90;;;;;;5090598;28;20476;-54
2022/11/25 00:32:30;;;;;;;18.98;3.67;;;8.50;99.90;;;;;;5092760;28;20048;-56
2022/11/25 00:34:55;;;;;;;11.10;2.47;;;8.50;99.90;;;;;;5090338;28;20476;-57
2022/11/25 00:37:21;;;;;;;19.70;3.13;;;8.50;99.90;;;;;;5092995;28;20081;-56
2022/11/25 00:39:46;;;;;;;11.25;2.63;;;8.50;99.90;;;;;;5092850;28;20029;-56
2022/11/25 00:44:56;;;;;;;19.25;3.88;;;8.40;99.90;;;;;;5090272;28;20153;-57
2022/11/25 00:47:21;;;;;;;13.73;2.83;;;8.40;99.90;;;;;;5089882;28;20103;-57
2022/11/25 00:49:50;;;;;;;21.58;4.47;;;8.40;99.90;;;;;;5084915;28;20031;-57
2022/11/25 00:52:18;;;;;;;21.03;3.90;;;8.40;99.90;;;;;;5095892;28;20055;-56
2022/11/25 00:54:46;;;;;;;18.58;3.60;;;8.40;99.90;;;;;;5093527;28;20110;-57
2022/11/25 00:57:12;;;;;;;15.18;3.30;;;8.40;99.90;;;;;;5095687;28;20027;-57
2022/11/25 00:59:38;;;;;;;15.50;3.13;;;8.40;99.90;;;;;;5089478;28;20044;-56
2022/11/25 01:02:04;;;;;;;17.27;3.53;;;8.40;99.90;;;;;;5092530;28;20367;-57
2022/11/25 01:04:29;;;;;;;14.13;2.90;;;8.40;99.90;;;;;;5092786;28;20500;-56
2022/11/25 01:06:55;;;;;;;19.17;4.32;;;8.30;99.90;;;;;;5095298;28;20485;-55
2022/11/25 01:09:21;;;;;;;19.65;3.88;;;8.30;99.90;;;;;;5090456;28;20202;-57
2022/11/25 01:11:50;;;;;;;14.38;2.95;;;8.30;99.90;;;;;;5089321;28;20060;-57
2022/11/25 01:14:15;;;;;;;13.48;2.80;;;8.30;99.90;;;;;;5092092;28;20023;-57
2022/11/25 01:16:41;;;;;;;20.25;3.97;;;8.30;99.90;;;;;;5092322;28;20031;-56
2022/11/25 01:19:06;;;;;;;13.73;2.50;;;8.30;99.90;;;;;;5089332;28;20031;-57
2022/11/25 01:21:33;;;;;;;18.35;4.00;;;8.30;99.90;;;;;;5091970;28;20024;-56
2022/11/25 01:24:00;;;;;;;19.20;3.42;;;8.30;99.90;;;;;;5091677;28;20039;-55
2022/11/25 01:26:26;;;;;;;14.07;2.83;;;8.30;99.90;;;;;;5096312;28;20066;-57
2022/11/25 01:28:57;;;;;;;13.50;3.10;;;8.30;99.90;;;;;;5089242;28;20020;-57
2022/11/25 01:31:24;;;;;;;15.10;3.28;;;8.30;99.90;;;;;;5091604;28;20020;-56
2022/11/25 01:33:56;;;;;;;15.02;3.33;;;8.30;99.90;;;;;;5089531;28;20121;-57
2022/11/25 01:36:22;;;;;;;15.82;3.85;;;8.40;99.90;;;;;;5091929;28;20505;-57
2022/11/25 01:38:52;;;;;;;17.27;3.03;;;8.30;99.90;;;;;;5094762;28;20076;-57
2022/11/25 01:41:19;;;;;;;13.15;2.63;;;8.30;99.90;;;;;;5091844;28;20098;-57
2022/11/25 01:44:08;;;;;;;15.38;2.85;;;8.30;99.90;;;;;;5097192;27;20035;-57
2022/11/25 01:46:51;;;;;;;18.05;3.05;;;8.40;99.90;;;;;;5089140;28;20020;-56
2022/11/25 01:49:22;;;;;;;18.55;3.35;;;8.30;99.90;;;;;;5089016;28;20028;-56
2022/11/25 01:51:51;;;;;;;18.80;3.80;;;8.40;99.90;;;;;;5090624;28;20028;-57
2022/11/25 01:54:21;;;;;;;14.85;3.28;;;8.40;99.90;;;;;;5088770;28;20107;-56
2022/11/25 01:56:52;;;;;;;19.23;3.67;;;8.40;99.90;;;;;;5070750;28;20085;-56
2022/11/25 01:59:18;;;;;;;15.50;2.72;;;8.40;99.90;;;;;;5088723;28;20028;-56
2022/11/25 02:01:44;;;;;;;13.93;3.28;;;8.40;99.90;;;;;;5091359;28;20028;-56
2022/11/25 02:04:12;;;;;;;18.80;3.28;;;8.30;99.90;;;;;;5093942;28;20020;-56
2022/11/25 02:06:45;;;;;;;12.70;3.42;;;8.40;99.90;;;;;;5088666;28;20098;-56
2022/11/25 02:09:11;;;;;;;14.85;3.03;;;8.40;99.90;;;;;;5093130;28;20032;-55
2022/11/25 02:11:41;;;;;;;17.30;2.78;;;8.40;99.90;;;;;;5088692;28;20031;-56
2022/11/25 02:14:08;;;;;;;19.38;2.97;;;8.40;99.90;;;;;;5089910;28;20468;-56
2022/11/25 02:16:34;;;;;;;16.00;3.40;;;8.40;99.90;;;;;;5120295;28;20035;-56
2022/11/25 02:19:02;;;;;;;13.95;2.97;;;8.50;99.90;;;;;;5107642;28;20035;-54
2022/11/25 02:21:39;;;;;;;13.50;3.10;;;8.50;99.90;;;;;;5100642;28;20443;-55
2022/11/25 02:24:21;;;;;;;17.65;3.70;;;8.50;99.90;;;;;;5118801;28;20020;-55
2022/11/25 02:26:47;;;;;;;20.45;2.97;;;8.50;99.90;;;;;;5092294;28;20028;-57
2022/11/25 02:29:12;;;;;;;19.20;3.25;;;8.60;99.90;;;;;;5093087;28;20047;-56
2022/11/25 02:31:38;;;;;;;12.30;2.75;;;8.60;99.90;;;;;;5095576;28;20050;-57
2022/11/25 02:34:03;;;;;;;20.35;3.08;;;8.70;99.90;;;;;;5092970;28;20051;-57
2022/11/25 02:36:29;;;;;;;14.07;2.40;;;8.70;99.90;;;;;;5093318;28;20099;-56
2022/11/25 02:39:00;;;;;;;19.15;2.72;;;8.80;99.90;;;;;;5093622;28;20114;-58
2022/11/25 02:41:31;;;;;;;8.85;2.45;;;8.90;99.90;;;;;;5074512;28;20388;-54
2022/11/25 02:43:57;;;;;;;17.15;3.03;;;8.90;99.90;;;;;;5095197;28;20016;-57
2022/11/25 02:46:24;;;;;;;16.05;3.05;;;9.00;99.90;;;;;;5095059;28;20027;-58
2022/11/25 02:48:52;;;;;;;13.20;2.63;;;9.00;99.90;;;;;;5096859;28;20485;-56
2022/11/25 02:51:19;;;;;;;11.18;2.40;;;9.00;99.90;;;;;;5098751;28;20036;-56
2022/11/25 02:53:45;;;;;;;9.90;2.00;;;9.10;99.90;;;;;;5082284;28;20093;-57
2022/11/25 02:56:12;;;;;;;15.30;3.17;;;9.10;99.90;;;;;;5098241;27;20415;-56
2022/11/25 02:58:39;;;;;;;11.10;2.10;;;9.10;99.90;;;;;;5092546;28;20110;-57
2022/11/25 03:01:04;;;;;;;14.98;2.50;;;9.20;99.90;;;;;;5097854;28;20028;-56
2022/11/25 03:03:30;;;;;;;14.93;2.80;;;9.20;99.90;;;;;;5092879;28;20028;-57
2022/11/25 03:05:55;;;;;;;11.48;2.67;;;9.20;99.90;;;;;;5094511;28;20031;-57
2022/11/25 03:08:21;;;;;;;9.18;2.00;;;9.30;99.90;;;;;;5094945;28;20106;-55
2022/11/25 03:10:46;;;;;;;8.35;1.77;;;9.40;99.90;;;;;;5097227;28;20042;-56
2022/11/25 03:13:12;;;;;;;8.15;1.77;;;9.40;99.90;;;;;;5079214;28;20437;-56
2022/11/25 03:15:37;;;;;;;14.93;2.65;;;9.50;99.90;;;;;;5073568;28;20107;-57
2022/11/25 03:18:04;;;;;;;13.57;4.45;;;9.50;99.90;;;;;;5076298;28;20032;-57
2022/11/25 03:20:30;;;;;;;10.57;2.08;;;9.60;99.90;;;;;;5096425;28;20024;-57
2022/11/25 03:22:55;;;;;;;8.77;1.63;;;9.60;99.90;;;;;;5094472;27;20012;-56
2022/11/25 03:25:21;;;;;;;9.98;2.60;;;9.60;99.90;;;;;;5094415;28;20111;-57
2022/11/25 03:27:47;;;;;;;16.10;2.28;;;9.60;99.90;;;;;;5094447;28;20051;-56
2022/11/25 03:30:21;;;;;;;9.73;1.92;;;9.60;99.90;;;;;;5094388;27;20476;-55
2022/11/25 03:32:47;;;;;;;10.60;1.60;;;9.60;99.90;;;;;;5092138;27;20059;-57
2022/11/25 03:35:13;;;;;;;9.90;2.15;;;9.60;99.90;;;;;;5098183;28;20522;-55
2022/11/25 03:37:39;;;;;;;6.95;1.55;;;9.60;99.90;;;;;;5076060;28;20036;-56
2022/11/25 03:40:07;;;;;;;6.93;1.10;;;9.60;99.90;;;;;;5094403;28;20024;-55
2022/11/25 03:42:33;;;;;;;6.53;1.17;;;9.60;99.90;;;;;;5095858;28;20526;-57
2022/11/25 03:44:58;;;;;;;7.40;1.70;;;9.60;99.90;;;;;;5091126;28;20020;-57
2022/11/25 03:47:24;;;;;;;10.82;1.73;;;9.60;99.90;;;;;;5095641;28;20012;-57
2022/11/25 03:49:49;;;;;;;7.88;1.20;;;9.60;99.90;;;;;;5094160;28;20027;-57
2022/11/25 03:52:15;;;;;;;11.05;2.22;;;9.50;99.90;;;;;;5096395;28;20051;-57
2022/11/25 03:54:41;;;;;;;7.22;1.50;;;9.50;99.90;;;;;;5079146;28;20028;-56
2022/11/25 03:57:06;;;;;;;8.68;1.27;;;9.50;99.90;;;;;;5099027;28;20062;-56
2022/11/25 03:59:32;;;;;;;9.80;1.38;;;9.50;99.90;;;;;;5097727;28;20039;-57
2022/11/25 04:01:57;;;;;;;9.98;1.27;;;9.40;99.90;;;;;;5093761;28;20035;-56
2022/11/25 04:04:23;;;;;;;9.77;1.58;;;9.40;99.90;;;;;;5092364;28;20021;-57
2022/11/25 04:06:49;;;;;;;9.30;1.83;;;9.40;99.90;;;;;;5093686;28;20028;-56
2022/11/25 04:09:14;;;;;;;7.32;1.20;;;9.40;99.90;;;;;;5090649;28;20085;-56
2022/11/25 04:14:24;;;;;;;8.45;1.75;;;9.30;99.90;;;;;;5090746;28;20062;-57
2022/11/25 04:16:50;;;;;;;7.00;1.20;;;9.30;99.90;;;;;;5095923;28;20047;-56
2022/11/25 04:19:15;;;;;;;7.57;1.52;;;9.30;99.90;;;;;;5093238;28;20036;-57
2022/11/25 04:21:41;;;;;;;7.28;1.73;;;9.30;99.90;;;;;;5095543;28;20032;-55
2022/11/25 04:24:07;;;;;;;8.20;1.90;;;9.30;99.90;;;;;;5093826;28;20020;-57
2022/11/25 04:26:32;;;;;;;8.20;1.38;;;9.30;99.90;;;;;;5095732;28;20047;-57
2022/11/25 04:28:58;;;;;;;8.77;2.00;;;9.30;99.90;;;;;;5092336;27;20060;-57
2022/11/25 04:31:23;;;;;;;8.38;1.95;;;9.30;99.90;;;;;;5075070;28;20012;-57
2022/11/25 04:33:49;;;;;;;11.43;2.03;;;9.30;99.90;;;;;;5097211;28;20461;-57
2022/11/25 04:36:14;;;;;;;10.20;2.22;;;9.20;99.90;;;;;;5094441;28;20127;-56
2022/11/25 04:38:40;;;;;;;7.95;2.35;;;9.30;99.90;;;;;;5093203;28;20063;-56
2022/11/25 04:41:06;;;;;;;13.60;2.88;;;9.30;99.90;;;;;;5092437;28;20024;-56
2022/11/25 04:43:31;;;;;;;9.55;2.00;;;9.20;99.90;;;;;;5097129;28;20024;-57
2022/11/25 04:45:57;;;;;;;14.15;2.50;;;9.30;99.90;;;;;;5075537;28;20089;-57
2022/11/25 04:48:23;;;;;;;7.85;1.85;;;9.30;99.90;;;;;;5095058;28;20032;-56
2022/11/25 04:50:48;;;;;;;10.02;2.13;;;9.30;99.90;;;;;;5072711;28;20085;-57
2022/11/25 04:53:14;;;;;;;10.73;1.42;;;9.30;99.90;;;;;;5092687;28;20063;-57
2022/11/25 04:55:40;;;;;;;7.57;1.42;;;9.30;99.90;;;;;;5095417;28;20400;-56
2022/11/25 04:58:05;;;;;;;6.80;1.48;;;9.30;99.90;;;;;;5092808;28;20161;-57
2022/11/25 05:00:31;;;;;;;8.65;2.10;;;9.30;99.90;;;;;;5094156;28;20066;-56
2022/11/25 05:02:57;;;;;;;9.10;1.73;;;9.30;99.90;;;;;;5091686;28;20032;-56
2022/11/25 05:05:22;;;;;;;8.07;1.83;;;9.30;99.90;;;;;;5092309;28;20031;-56
2022/11/25 05:07:48;;;;;;;7.07;1.60;;;9.30;99.90;;;;;;5089656;28;20473;-56
2022/11/25 05:10:14;;;;;;;8.90;1.50;;;9.30;99.90;;;;;;5074089;28;20127;-55
2022/11/25 05:12:40;;;;;;;11.57;2.10;;;9.30;99.90;;;;;;5092208;28;20103;-56
2022/11/25 05:15:06;;;;;;;9.18;1.55;;;9.30;99.90;;;;;;5094114;28;20103;-56
2022/11/25 05:17:33;;;;;;;6.40;1.65;;;9.30;99.90;;;;;;5089215;28;20086;-57
2022/11/25 05:19:58;;;;;;;6.18;1.05;;;9.30;99.90;;;;;;5092880;28;20028;-57
2022/11/25 05:22:27;;;;;;;7.30;1.23;;;9.30;99.90;;;;;;5093763;28;20468;-55
2022/11/25 05:24:53;;;;;;;7.00;0.82;;;9.30;99.90;;;;;;5090489;28;20397;-56
2022/11/25 05:27:20;;;;;;;7.82;1.30;;;9.30;99.90;;;;;;5091456;28;20031;-57
2022/11/25 05:29:45;;;;;;;11.23;1.80;;;9.30;99.90;;;;;;5094750;27;20036;-55
2022/11/25 05:32:11;;;;;;;5.25;1.20;;;9.30;99.90;;;;;;5094633;28;20060;-57
2022/11/25 05:34:37;;;;;;;6.22;1.42;;;9.30;99.90;;;;;;5090073;28;20024;-57
2022/11/25 05:37:03;;;;;;;5.82;0.93;;;9.30;99.90;;;;;;5089037;28;20507;-57
2022/11/25 05:39:29;;;;;;;6.30;1.33;;;9.20;99.90;;;;;;5094298;28;20024;-58
2022/11/25 05:41:55;;;;;;;7.25;1.35;;;9.20;99.90;;;;;;5089387;28;20022;-57
2022/11/25 05:44:21;;;;;;;5.90;1.00;;;9.10;99.90;;;;;;5090250;28;20021;-55
2022/11/25 05:46:47;;;;;;;6.03;1.00;;;9.10;99.90;;;;;;5091501;28;20554;-56
2022/11/25 05:49:13;;;;;;;3.25;0.60;;;9.00;99.90;;;;;;5097589;28;20024;-57
2022/11/25 05:51:39;;;;;;;4.00;0.68;;;9.00;99.90;;;;;;5088865;28;20069;-56
2022/11/25 05:54:04;;;;;;;6.07;0.93;;;9.00;99.90;;;;;;5088703;28;20067;-55
2022/11/25 05:56:30;;;;;;;2.72;0.50;;;8.90;99.90;;;;;;5088541;28;20028;-56
2022/11/25 05:58:58;;;;;;;3.40;0.88;;;8.90;99.90;;;;;;5088634;28;20266;-53
2022/11/25 06:01:23;;;;;;;3.00;0.68;;;8.80;99.90;;;;;;5088713;28;20028;-57
2022/11/25 06:03:49;;;;;;;4.45;0.80;;;8.80;99.90;;;;;;5090918;28;20431;-56
2022/11/25 06:06:15;;;;;;;7.55;1.13;;;8.80;99.90;;;;;;5107687;27;20016;-55
2022/11/25 06:08:40;;;;;;;5.00;0.98;;;8.80;99.90;;;;;;5070965;28;20028;-56
2022/11/25 06:11:11;;;;;;;6.30;1.25;;;8.80;99.90;;;;;;5092943;28;20116;-54
2022/11/25 06:13:38;;;;;;;6.78;0.85;;;8.80;99.90;;;;;;5092819;28;20055;-56
2022/11/25 06:16:21;;;;;;;6.50;1.00;;;8.80;99.90;;;;;;5098263;28;20031;-57
2022/11/25 06:18:47;;;;;;;4.88;1.00;;;8.80;99.90;;;;;;5084384;28;20035;-57
2022/11/25 06:21:13;;;;;;;7.15;0.95;;;8.70;99.90;;;;;;5093103;28;20032;-56
2022/11/25 06:23:39;;;;;;;4.68;1.05;;;8.70;99.90;;;;;;5093206;28;20031;-56
2022/11/25 06:26:07;;;;;;;9.60;1.38;;;8.70;99.90;;;;;;5101525;28;20189;-55
2022/11/25 06:28:33;;;;;;;5.32;1.20;;;8.70;99.90;;;;;;5094226;28;20047;-56
2022/11/25 06:31:06;;;;;;;7.78;1.30;;;8.70;99.90;;;;;;5122831;27;20481;-57
2022/11/25 06:33:32;;;;;;;6.90;1.80;;;8.60;99.90;;;;;;5113104;28;20095;-56
2022/11/25 06:35:58;;;;;;;7.32;1.45;;;8.60;99.90;;;;;;5100744;28;20015;-56
2022/11/25 06:38:23;;;;;;;7.93;1.38;;;8.60;99.90;;;;;;5115345;28;20153;-58
2022/11/25 06:40:49;;;;;;;5.35;1.35;;;8.60;99.90;;;;;;5088409;28;20088;-56
2022/11/25 06:43:14;;;;;;;4.95;1.73;;;8.50;99.90;;;;;;5109719;28;20016;-56
2022/11/25 06:45:40;;;;;;;5.15;1.10;;;8.50;99.90;;;;;;5111894;28;20030;-56
2022/11/25 06:48:05;;;;;;;5.35;1.20;;;8.40;99.90;;;;;;5114748;28;20483;-57
2022/11/25 06:50:31;;;;;;;7.97;1.33;;;8.40;99.90;;;;;;5093922;28;20024;-56
2022/11/25 06:52:58;;;;;;;5.90;1.10;;;8.40;99.90;;;;;;5114370;28;20031;-56
2022/11/25 06:55:24;;;;;;;6.93;1.25;;;8.50;99.90;;;;;;5111649;28;20019;-57
2022/11/25 06:57:49;;;;;;;6.30;1.55;;;8.40;99.90;;;;;;5115780;28;20500;-56
2022/11/25 07:00:15;;;;;;;6.00;1.33;;;8.40;99.90;;;;;;5114872;28;20067;-57
2022/11/25 07:02:41;;;;;;;10.23;2.25;;;8.50;99.90;;;;;;5096524;28;20028;-57
2022/11/25 07:05:06;;;;;;;9.88;1.70;;;8.40;99.90;;;;;;5112398;28;20473;-53
2022/11/25 07:07:32;;;;;;;6.20;1.48;;;8.50;99.90;;;;;;5096960;27;20057;-56
2022/11/25 07:09:57;;;;;;;6.22;1.60;;;8.40;99.90;;;;;;5098372;28;20028;-56
2022/11/25 07:12:23;;;;;;;6.47;1.30;;;8.40;99.90;;;;;;5114068;28;20098;-55
2022/11/25 07:14:51;;;;;;;6.10;1.48;;;8.40;99.90;;;;;;5111297;28;20024;-56
2022/11/25 07:17:17;;;;;;;7.45;1.80;;;8.40;99.90;;;;;;5106927;28;20028;-57
2022/11/25 07:19:44;;;;;;;8.90;1.90;;;8.40;99.90;;;;;;5115140;28;20024;-56
2022/11/25 07:22:09;;;;;;;6.63;1.88;;;8.40;99.90;;;;;;5103210;28;20133;-57
2022/11/25 07:24:35;;;;;;;7.28;2.47;;;8.30;99.90;;;;;;5095272;28;20544;-56
2022/11/25 07:27:01;;;;;;;7.72;1.80;;;8.40;99.90;;;;;;5108707;28;20091;-56
2022/11/25 07:29:26;;;;;;;6.72;1.83;;;8.30;99.90;;;;;;5083713;28;20414;-57
2022/11/25 07:31:52;;;;;;;8.73;2.00;;;8.30;99.90;;;;;;5101701;28;20123;-57
2022/11/25 07:34:19;;;;;;;6.70;1.85;;;8.30;99.90;;;;;;5105036;28;20040;-56
2022/11/25 07:36:47;;;;;;;8.15;1.70;;;8.30;99.90;;;;;;5109573;28;20440;-57
2022/11/25 07:39:21;;;;;;;9.00;1.92;;;8.30;99.90;;;;;;5106362;28;20023;-55
2022/11/25 07:41:52;;;;;;;12.95;2.03;;;8.20;99.90;;;;;;5112868;28;20027;-56
2022/11/25 07:44:18;;;;;;;5.75;1.98;;;8.20;99.90;;;;;;5108673;28;20016;-56
2022/11/25 07:46:47;;;;;;;7.57;2.50;;;8.20;99.90;;;;;;5085572;28;20020;-57
2022/11/25 07:49:21;;;;;;;9.27;2.43;;;8.20;99.90;;;;;;5106466;28;20096;-56
2022/11/25 07:51:52;;;;;;;5.75;1.80;;;8.20;99.90;;;;;;5100319;28;20266;-56
2022/11/25 07:54:18;;;;;;;7.07;2.22;;;8.20;99.90;;;;;;5101628;28;20089;-55
2022/11/25 07:56:44;;;;;;;9.38;2.30;;;8.20;99.90;;;;;;5077368;28;20392;-57
2022/11/25 07:59:13;;;;;;;4.68;2.10;;;8.20;99.90;;;;;;5095972;28;20054;-56
2022/11/25 08:01:39;;;;;;;6.18;1.98;;;8.20;99.90;;;;;;5094480;28;20024;-56
2022/11/25 08:04:07;;;;;;;5.75;1.90;;;8.20;99.90;;;;;;5097186;28;20021;-56
2022/11/25 08:06:41;;;;;;;9.75;2.47;;;8.30;99.90;;;;;;5103421;28;20061;-55
2022/11/25 08:09:07;;;;;;;7.90;2.15;;;8.30;99.90;;;;;;5097396;28;20417;-56
2022/11/25 08:11:33;;;;;;;8.65;1.95;;;8.30;99.90;;;;;;5094532;28;20044;-55
2022/11/25 08:13:59;;;;;;;8.32;1.92;;;8.30;99.90;;;;;;5099715;27;20099;-56
2022/11/25 08:16:27;;;;;;;8.75;2.63;;;8.30;99.90;;;;;;5106031;28;20099;-56
2022/11/25 08:18:53;;;;;;;7.25;2.30;;;8.40;99.90;;;;;;5099677;28;20019;-56
2022/11/25 08:21:19;;;;;;;9.57;2.60;;;8.40;99.90;;;;;;5100424;28;20043;-56
2022/11/25 08:23:47;;;;;;;6.38;2.10;;;8.40;99.90;;;;;;5107546;28;20062;-55
2022/11/25 08:26:19;;;;;;;6.00;2.42;;;8.40;99.90;;;;;;5109882;28;20023;-56
2022/11/25 08:28:45;;;;;;;8.82;2.25;;;8.50;99.90;;;;;;5110129;28;20082;-56
2022/11/25 08:31:33;;;;;;;7.32;2.17;;;8.50;99.90;;;;;;5113288;27;20016;-57
2022/11/25 08:33:59;;;;;;;9.68;2.40;;;8.60;99.90;;;;;;5109632;28;20119;-56
2022/11/25 08:36:26;;;;;;;10.05;2.35;;;8.60;99.90;;;;;;5112772;28;20084;-54
2022/11/25 08:38:54;;;;;;;11.63;2.65;;;8.60;99.90;;;;;;5108155;28;20024;-56
2022/11/25 08:41:32;;;;;;;5.57;2.03;;;8.70;99.90;;;;;;5108141;28;20369;-56
2022/11/25 08:44:00;;;;;;;7.10;1.88;;;8.80;99.90;;;;;;5110856;28;20395;-56
2022/11/25 08:46:28;;;;;;;5.13;1.90;;;8.80;99.90;;;;;;5112077;28;20506;-57
2022/11/25 08:48:55;;;;;;;4.68;1.70;;;8.80;99.90;;;;;;5111473;28;20011;-55
2022/11/25 08:51:23;;;;;;;6.43;1.90;;;8.90;99.90;;;;;;5105585;28;20106;-56
2022/11/25 08:53:50;;;;;;;9.02;2.42;;;8.90;99.90;;;;;;5111503;28;20028;-55
2022/11/25 08:56:17;;;;;;;6.97;1.85;;;9.00;99.90;;;;;;5111526;28;20054;-56
2022/11/25 08:58:43;;;;;;;8.73;2.55;;;9.00;99.90;;;;;;5075320;28;20032;-58
2022/11/25 09:01:09;;;;;;;6.30;1.70;;;9.10;99.90;;;;;;5095983;28;20111;-56
2022/11/25 09:03:39;;;;;;;5.03;1.23;;;9.10;99.90;;;;;;5108078;28;20016;-55
2022/11/25 09:06:06;;;;;;;7.55;1.65;;;9.20;99.90;;;;;;5096635;28;20444;-56
2022/11/25 09:08:32;;;;;;;5.90;1.42;;;9.20;99.90;;;;;;5093146;28;20059;-55
2022/11/25 09:10:59;;;;;;;7.68;1.45;;;9.30;99.90;;;;;;5103758;28;20096;-56
2022/11/25 09:13:25;;;;;;;7.40;1.80;;;9.40;99.90;;;;;;5089832;28;20031;-57
2022/11/25 09:15:51;;;;;;;4.95;1.50;;;9.40;99.90;;;;;;5100993;28;20031;-57
2022/11/25 09:18:19;;;;;;;7.80;1.48;;;9.60;99.90;;;;;;5074167;28;20016;-57
2022/11/25 09:20:45;;;;;;;4.85;1.50;;;9.60;99.90;;;;;;5092878;28;20473;-54
2022/11/25 09:23:10;;;;;;;6.40;1.30;;;9.70;99.90;;;;;;5099829;28;20019;-57
2022/11/25 09:25:36;;;;;;;5.97;1.88;;;9.80;99.90;;;;;;5095267;28;20472;-55
2022/11/25 09:28:02;;;;;;;6.80;2.10;;;9.90;99.90;;;;;;5098483;28;20533;-56
2022/11/25 09:30:28;;;;;;;6.03;2.17;;;9.90;99.90;;;;;;5109646;27;20396;-54
2022/11/25 09:32:55;;;;;;;9.50;2.10;;;10.00;99.90;;;;;;5098565;28;20047;-55
2022/11/25 09:35:22;;;;;;;6.97;2.05;;;10.10;99.90;;;;;;5108167;28;20027;-57
2022/11/25 09:37:47;;;;;;;8.38;2.60;;;10.20;99.90;;;;;;5092901;28;20069;-55
2022/11/25 09:40:18;;;;;;;8.15;2.63;;;10.30;99.90;;;;;;5074272;28;20032;-55
2022/11/25 09:46:40;;;;;;;11.20;2.67;;;10.60;99.90;;;;;;5100336;28;20034;-56
2022/11/25 09:49:18;;;;;;;7.03;2.85;;;10.80;99.90;;;;;;5085382;28;20020;-58
2022/11/25 09:51:55;;;;;;;10.23;2.95;;;10.90;99.90;;;;;;5079818;28;20057;-54
2022/11/25 09:54:28;;;;;;;5.85;2.20;;;11.00;99.90;;;;;;5111911;28;20389;-55
2022/11/25 09:57:25;;;;;;;7.03;2.33;;;11.20;99.90;;;;;;5092657;28;20464;-52
2022/11/25 10:00:09;;;;;;;8.93;2.60;;;11.50;99.90;;;;;;5108530;28;20059;-57
2022/11/25 10:03:01;;;;;;;7.07;2.42;;;12.10;99.90;;;;;;5108390;28;20034;-56
2022/11/25 10:05:50;;;;;;;5.13;1.90;;;12.60;99.90;;;;;;5106549;28;20111;-58
2022/11/25 10:08:21;;;;;;;6.97;2.38;;;13.10;99.90;;;;;;5097016;28;20024;-56
2022/11/25 10:10:51;;;;;;;4.65;2.05;;;13.30;99.90;;;;;;5106270;28;20015;-57
2022/11/25 10:13:31;;;;;;;6.07;1.95;;;13.40;99.90;;;;;;5109430;28;20072;-57
2022/11/25 10:16:00;;;;;;;5.78;1.80;;;13.50;99.90;;;;;;5107564;28;20027;-57
2022/11/25 10:18:28;;;;;;;3.53;1.63;;;13.80;99.90;;;;;;5110488;28;20055;-57
2022/11/25 10:20:54;;;;;;;5.43;1.67;;;14.10;99.60;;;;;;5107192;28;20032;-57
2022/11/25 10:23:29;;;;;;;5.45;1.80;;;14.40;99.10;;;;;;5107980;28;20072;-57
2022/11/25 10:25:59;;;;;;;7.55;2.00;;;14.60;98.40;;;;;;5108039;28;20020;-57
2022/11/25 10:28:30;;;;;;;5.18;1.50;;;14.80;97.80;;;;;;5108545;28;20018;-57
2022/11/25 10:31:14;;;;;;;5.32;1.48;;;15.00;97.10;;;;;;5111635;28;20027;-57
2022/11/25 10:33:53;;;;;;;5.07;1.75;;;15.30;96.60;;;;;;5088373;28;20347;-57
2022/11/25 10:36:35;;;;;;;8.45;2.58;;;15.60;95.70;;;;;;5089878;28;20480;-56
2022/11/25 10:39:19;;;;;;;5.25;1.50;;;16.00;95.20;;;;;;5107740;28;20500;-57
2022/11/25 10:41:58;;;;;;;5.63;1.58;;;16.20;94.10;;;;;;5109090;28;20019;-57
2022/11/25 10:44:30;;;;;;;5.70;1.67;;;16.60;92.80;;;;;;5109243;28;20016;-57
2022/11/25 10:47:26;;;;;;;6.00;1.52;;;17.20;91.80;;;;;;5093800;28;20017;-57
2022/11/25 10:50:25;;;;;;;6.75;1.77;;;17.30;90.90;;;;;;5094171;28;20035;-57
2022/11/25 10:53:08;;;;;;;5.70;1.52;;;17.40;90.20;;;;;;5107146;28;20027;-57
2022/11/25 10:55:34;;;;;;;6.70;2.00;;;17.30;90.40;;;;;;5104958;28;20019;-57
2022/11/25 10:58:24;;;;;;;5.93;1.55;;;17.10;88.90;;;;;;5102846;28;20051;-57
2022/11/25 11:01:02;;;;;;;4.28;1.40;;;17.20;88.90;;;;;;5087566;28;20023;-56
2022/11/25 11:03:28;;;;;;;5.20;1.50;;;17.80;87.80;;;;;;5095903;28;20020;-57
2022/11/25 11:05:54;;;;;;;6.55;1.30;;;18.20;85.20;;;;;;5095428;28;20384;-57
2022/11/25 11:08:25;;;;;;;4.35;1.52;;;18.60;82.50;;;;;;5100877;28;20032;-57
2022/11/25 11:11:20;;;;;;;12.07;1.63;;;19.20;81.20;;;;;;5099722;28;20388;-57
2022/11/25 11:13:47;;;;;;;6.68;1.50;;;19.80;76.70;;;;;;5094358;28;20028;-57
2022/11/25 11:16:25;;;;;;;5.25;1.38;;;20.10;75.60;;;;;;5111089;28;20050;-57
2022/11/25 11:18:51;;;;;;;4.80;1.40;;;20.90;72.80;;;;;;5091772;28;20027;-59
2022/11/25 11:21:35;;;;;;;2.90;1.05;;;21.50;69.80;;;;;;5108843;28;20111;-58
2022/11/25 11:24:02;;;;;;;6.10;1.55;;;22.10;67.80;;;;;;5111823;28;20023;-59
2022/11/25 11:26:31;;;;;;;3.28;1.23;;;22.30;65.00;;;;;;5113098;28;20073;-58
2022/11/25 11:29:14;;;;;;;5.78;1.40;;;22.80;63.80;;;;;;5109370;28;20486;-58
2022/11/25 11:31:47;;;;;;;4.78;1.58;;;23.20;62.70;;;;;;5111855;28;20040;-59
2022/11/25 11:34:39;;;;;;;5.55;1.48;;;23.80;60.80;;;;;;5110734;28;20027;-58
2022/11/25 11:37:20;;;;;;;4.95;1.60;;;24.20;58.30;;;;;;5092299;28;20034;-58
2022/11/25 11:40:01;;;;;;;4.65;1.52;;;24.80;57.60;;;;;;5109563;28;20016;-58
2022/11/25 11:42:51;;;;;;;4.03;1.65;;;25.60;56.10;;;;;;5111858;27;20023;-59
2022/11/25 11:45:22;;;;;;;4.90;1.52;;;26.90;54.20;;;;;;5097210;28;20478;-58
2022/11/25 11:48:23;;;;;;;4.78;1.60;;;27.70;50.90;;;;;;5101720;28;20056;-58
2022/11/25 11:51:18;;;;;;;4.43;1.42;;;28.10;49.30;;;;;;5103927;28;20032;-59
2022/11/25 11:54:01;;;;;;;3.75;1.10;;;28.70;48.80;;;;;;5102384;28;20028;-58
2022/11/25 11:56:36;;;;;;;4.80;1.60;;;29.50;48.00;;;;;;5101469;28;20101;-58
2022/11/25 11:59:16;;;;;;;3.83;1.00;;;30.10;47.00;;;;;;5110612;28;20023;-58
2022/11/25 12:02:11;;;;;;;3.35;1.02;;;30.70;46.40;;;;;;5109578;28;20019;-61
2022/11/25 12:04:45;;;;;;;4.80;1.65;;;30.90;44.00;;;;;;5106918;28;20540;-59
2022/11/25 12:07:14;;;;;;;6.13;2.13;;;30.90;43.20;;;;;;5095249;28;20085;-58
2022/11/25 12:09:58;;;;;;;2.83;1.23;;;31.00;42.70;;;;;;5095742;28;20028;-58
2022/11/25 12:12:55;;;;;;;5.53;2.05;;;31.10;42.80;;;;;;5098660;28;20026;-59
2022/11/25 12:15:38;;;;;;;3.83;1.33;;;31.10;41.40;;;;;;5100474;28;20063;-58
2022/11/25 12:18:19;;;;;;;4.05;1.30;;;31.30;42.10;;;;;;5098981;28;20027;-59
2022/11/25 12:20:56;;;;;;;5.00;1.38;;;31.70;41.50;;;;;;5114279;28;20055;-59
2022/11/25 12:23:40;;;;;;;2.90;1.15;;;32.20;41.40;;;;;;5101636;28;20431;-59
2022/11/25 12:26:19;;;;;;;4.55;1.25;;;32.40;41.60;;;;;;5094171;28;20028;-59
2022/11/25 12:28:56;;;;;;;;;;;32.50;41.00;;;;;;5108634;28;20042;-59
2022/11/25 12:31:26;;;;;;;3.53;1.30;;;32.40;40.40;;;;;;5102146;28;20361;-59
2022/11/25 12:34:10;;;;;;;3.22;1.40;;;32.20;40.90;;;;;;5096832;28;20058;-59
2022/11/25 12:36:40;;;;;;;5.10;1.63;;;32.10;40.50;;;;;;5098501;28;20035;-59
2022/11/25 12:39:31;;;;;;;4.05;1.52;;;31.80;40.40;;;;;;5093905;28;20105;-59
2022/11/25 12:42:10;;;;;;;4.30;1.55;;;31.40;40.50;;;;;;5093522;28;20016;-59
2022/11/25 12:44:58;;;;;;;4.72;1.70;;;30.30;41.90;;;;;;5098445;28;20132;-59
2022/11/25 12:47:24;;;;;;;3.63;1.50;;;30.10;42.20;;;;;;5110896;28;20098;-59
2022/11/25 12:49:53;;;;;;;3.97;1.60;;;30.10;42.20;;;;;;5109480;28;20023;-59
2022/11/25 12:52:41;;;;;;;6.93;1.92;;;30.00;41.80;;;;;;5105976;28;20035;-58
2022/11/25 12:55:26;;;;;;;3.92;1.70;;;29.10;41.90;;;;;;5103100;28;20031;-58
2022/11/25 12:58:19;;;;;;;4.50;1.50;;;27.60;43.30;;;;;;5109499;28;20016;-59
2022/11/25 13:01:16;;;;;;;5.22;1.77;;;26.80;44.70;;;;;;5101210;28;20028;-58
2022/11/25 13:03:42;;;;;;;4.82;1.88;;;25.90;45.40;;;;;;5084308;28;20024;-59
2022/11/25 13:06:46;;;;;;;6.43;1.67;;;25.10;47.00;;;;;;5093630;28;20321;-58
2022/11/25 13:09:27;;;;;;;5.05;1.83;;;24.60;47.50;;;;;;5097420;28;20472;-58
2022/11/25 13:12:30;;;;;;;4.90;1.67;;;23.70;49.00;;;;;;5075154;28;20035;-58
2022/11/25 13:15:19;;;;;;;6.07;2.03;;;23.10;50.10;;;;;;5100268;28;20016;-58